createdAt,value
2019-04-25T00:00:23.840Z,8.00
2019-04-25T00:02:51.227Z,8.10
2019-04-25T00:05:18.744Z,8.00
2019-04-25T00:07:45.546Z,7.90
2019-04-25T00:10:13.762Z,8.10
2019-04-25T00:12:43.182Z,8.00
2019-04-25T00:15:11.170Z,8.10
2019-04-25T00:17:38.604Z,7.50
2019-04-25T00:20:07.009Z,8.00
2019-04-25T00:22:35.615Z,8.00
2019-04-25T00:25:22.436Z,8.00
2019-04-25T00:27:49.492Z,8.10
2019-04-25T00:30:16.286Z,7.90
2019-04-25T00:32:44.124Z,8.00
2019-04-25T00:35:11.799Z,7.60
2019-04-25T00:37:38.819Z,8.00
2019-04-25T00:40:06.756Z,7.80
2019-04-25T00:42:33.560Z,7.90
2019-04-25T00:45:02.200Z,8.00
2019-04-25T00:47:29.213Z,7.30
2019-04-25T00:49:56.006Z,7.90
2019-04-25T00:52:22.924Z,7.90
2019-04-25T00:54:50.494Z,7.90
2019-04-25T00:57:18.669Z,8.00
2019-04-25T00:59:47.273Z,7.90
2019-04-25T01:02:18.411Z,7.90
2019-04-25T01:04:45.333Z,7.80
2019-04-25T01:07:12.719Z,7.80
2019-04-25T01:09:39.945Z,7.80
2019-04-25T01:12:07.948Z,7.60
2019-04-25T01:14:35.041Z,7.80
2019-04-25T01:17:01.898Z,7.80
2019-04-25T01:19:28.683Z,7.70
2019-04-25T01:21:56.067Z,7.60
2019-04-25T01:24:24.040Z,7.70
2019-04-25T01:26:51.672Z,7.60
2019-04-25T01:29:18.490Z,7.70
2019-04-25T01:31:46.504Z,7.50
2019-04-25T01:34:14.277Z,7.50
2019-04-25T01:36:54.745Z,7.30
2019-04-25T01:39:40.280Z,7.30
2019-04-25T01:42:15.557Z,7.30
2019-04-25T01:44:44.181Z,7.30
2019-04-25T01:47:14.120Z,7.30
2019-04-25T01:49:41.203Z,7.20
2019-04-25T01:52:08.000Z,6.90
2019-04-25T01:54:35.019Z,7.00
2019-04-25T01:57:04.313Z,6.80
2019-04-25T01:59:31.449Z,6.70
2019-04-25T02:01:58.880Z,6.50
2019-04-25T02:04:26.165Z,6.50
2019-04-25T02:06:54.355Z,6.50
2019-04-25T02:09:23.573Z,6.60
2019-04-25T02:11:54.720Z,6.50
2019-04-25T02:14:23.590Z,6.30
2019-04-25T02:16:50.812Z,6.20
2019-04-25T02:19:17.663Z,6.20
2019-04-25T02:21:44.444Z,6.20
2019-04-25T02:24:11.296Z,5.90
2019-04-25T02:26:38.156Z,5.90
2019-04-25T02:29:04.962Z,5.90
2019-04-25T02:31:34.455Z,5.80
2019-04-25T02:34:03.469Z,5.90
2019-04-25T02:36:29.817Z,5.80
2019-04-25T02:38:59.517Z,6.00
2019-04-25T02:41:25.397Z,6.20
2019-04-25T02:43:56.279Z,6.10
2019-04-25T02:46:39.001Z,6.10
2019-04-25T02:49:32.727Z,6.20
2019-04-25T02:51:59.561Z,6.20
2019-04-25T02:54:28.043Z,6.20
2019-04-25T02:56:56.963Z,6.10
2019-04-25T02:59:25.355Z,6.00
2019-04-25T03:01:54.122Z,5.90
2019-04-25T03:04:21.267Z,5.90
2019-04-25T03:06:48.395Z,5.80
2019-04-25T03:09:15.781Z,5.80
2019-04-25T03:11:45.236Z,6.00
2019-04-25T03:14:11.593Z,5.80
2019-04-25T03:16:38.497Z,5.80
2019-04-25T03:19:08.251Z,5.90
2019-04-25T03:21:37.636Z,5.70
2019-04-25T03:24:09.054Z,5.70
2019-04-25T03:26:40.407Z,5.70
2019-04-25T03:29:03.875Z,5.60
2019-04-25T03:31:34.703Z,5.60
2019-04-25T03:34:02.191Z,5.50
2019-04-25T03:36:29.237Z,5.40
2019-04-25T03:38:56.096Z,5.30
2019-04-25T03:41:24.353Z,5.20
2019-04-25T03:43:51.796Z,5.10
2019-04-25T03:46:18.768Z,5.00
2019-04-25T03:48:45.574Z,4.90
2019-04-25T03:51:14.254Z,4.80
2019-04-25T03:53:41.073Z,4.80
2019-04-25T03:56:08.643Z,4.90
2019-04-25T03:58:35.926Z,4.80
2019-04-25T04:01:05.939Z,4.80
2019-04-25T04:03:33.803Z,4.80
2019-04-25T04:06:01.017Z,4.90
2019-04-25T04:08:27.802Z,4.80
2019-04-25T04:10:54.780Z,4.60
2019-04-25T04:13:21.620Z,4.60
2019-04-25T04:15:48.421Z,4.80
2019-04-25T04:18:17.435Z,4.80
2019-04-25T04:21:01.374Z,4.80
2019-04-25T04:23:29.987Z,4.80
2019-04-25T04:25:56.800Z,4.90
2019-04-25T04:28:23.683Z,4.80
2019-04-25T04:30:50.508Z,4.80
2019-04-25T04:33:29.515Z,4.70
2019-04-25T04:35:46.121Z,4.50
2019-04-25T04:38:14.414Z,4.60
2019-04-25T04:40:41.781Z,4.50
2019-04-25T04:43:09.589Z,4.60
2019-04-25T04:45:36.536Z,4.70
2019-04-25T04:48:03.621Z,4.50
2019-04-25T04:50:30.475Z,4.60
2019-04-25T04:52:57.268Z,4.50
2019-04-25T04:55:24.074Z,4.40
2019-04-25T04:57:50.912Z,4.30
2019-04-25T05:00:18.652Z,4.30
2019-04-25T05:02:48.289Z,4.20
2019-04-25T05:05:24.670Z,4.20
2019-04-25T05:07:56.420Z,4.20
2019-04-25T05:10:23.727Z,4.20
2019-04-25T05:12:53.172Z,4.20
2019-04-25T05:15:20.571Z,4.20
2019-04-25T05:17:47.653Z,4.20
2019-04-25T05:20:16.031Z,4.30
2019-04-25T05:22:44.524Z,4.30
2019-04-25T05:25:14.676Z,4.30
2019-04-25T05:27:57.669Z,4.50
2019-04-25T05:30:14.384Z,4.50
2019-04-25T05:32:40.466Z,4.30
2019-04-25T05:35:07.447Z,4.40
2019-04-25T05:37:34.236Z,4.30
2019-04-25T05:40:01.175Z,4.30
2019-04-25T05:42:33.875Z,4.10
2019-04-25T05:45:00.704Z,4.10
2019-04-25T05:47:27.535Z,4.20
2019-04-25T05:49:54.393Z,4.20
2019-04-25T05:52:21.960Z,4.20
2019-04-25T05:54:48.896Z,4.30
2019-04-25T05:57:16.554Z,4.20
2019-04-25T05:59:43.706Z,4.20
2019-04-25T06:02:10.844Z,4.40
2019-04-25T06:04:37.636Z,4.30
2019-04-25T06:07:05.667Z,4.50
2019-04-25T06:09:35.830Z,4.60
2019-04-25T06:12:04.764Z,4.50
2019-04-25T06:14:33.303Z,4.60
2019-04-25T06:17:03.432Z,4.80
2019-04-25T06:19:39.028Z,4.70
2019-04-25T06:22:07.847Z,4.80
2019-04-25T06:24:36.480Z,5.00
2019-04-25T06:27:09.240Z,5.00
2019-04-25T06:29:36.040Z,5.00
2019-04-25T06:32:06.611Z,5.10
2019-04-25T06:34:34.639Z,5.00
2019-04-25T06:37:02.446Z,5.20
2019-04-25T06:39:29.313Z,5.20
2019-04-25T06:41:56.169Z,5.30
2019-04-25T06:44:28.474Z,5.40
2019-04-25T06:47:05.148Z,5.50
2019-04-25T06:49:36.514Z,5.40
2019-04-25T06:52:04.109Z,5.40
2019-04-25T06:54:31.621Z,5.50
2019-04-25T06:56:59.055Z,5.60
2019-04-25T06:59:27.418Z,5.70
2019-04-25T07:01:56.239Z,5.70
2019-04-25T07:04:26.194Z,5.80
2019-04-25T07:06:53.493Z,5.70
2019-04-25T07:09:20.567Z,5.80
2019-04-25T07:11:48.263Z,5.80
2019-04-25T07:14:15.374Z,5.80
2019-04-25T07:16:43.333Z,5.80
2019-04-25T07:19:10.281Z,5.70
2019-04-25T07:21:37.351Z,5.80
2019-04-25T07:24:04.767Z,5.90
2019-04-25T07:26:37.721Z,6.00
2019-04-25T07:29:13.450Z,6.10
2019-04-25T07:31:49.111Z,6.10
2019-04-25T07:34:20.601Z,6.00
2019-04-25T07:36:47.700Z,6.20
2019-04-25T07:39:14.614Z,6.30
2019-04-25T07:41:41.769Z,6.20
2019-04-25T07:44:08.577Z,6.30
2019-04-25T07:46:39.272Z,6.30
2019-04-25T07:49:04.144Z,6.30
2019-04-25T07:51:31.046Z,6.20
2019-04-25T07:53:58.217Z,6.50
2019-04-25T07:56:25.244Z,6.50
2019-04-25T07:58:53.201Z,6.70
2019-04-25T08:01:21.170Z,6.60
2019-04-25T08:03:47.989Z,6.70
2019-04-25T08:06:14.775Z,6.70
2019-04-25T08:08:43.428Z,6.80
2019-04-25T08:11:10.916Z,6.80
2019-04-25T08:13:46.761Z,6.80
2019-04-25T08:16:15.409Z,6.80
2019-04-25T08:18:43.408Z,6.90
2019-04-25T08:21:10.225Z,7.00
2019-04-25T08:23:38.856Z,7.00
2019-04-25T08:26:05.960Z,7.10
2019-04-25T08:28:34.462Z,7.20
2019-04-25T08:31:01.606Z,7.20
2019-04-25T08:33:29.755Z,7.40
2019-04-25T08:36:06.515Z,7.40
2019-04-25T08:38:26.429Z,7.40
2019-04-25T08:40:55.528Z,7.60
2019-04-25T08:43:22.122Z,7.70
2019-04-25T08:45:48.980Z,7.70
2019-04-25T08:48:15.800Z,7.70
2019-04-25T08:50:56.728Z,7.70
2019-04-25T08:53:25.019Z,7.60
2019-04-25T08:55:54.083Z,7.60
2019-04-25T08:58:21.412Z,7.50
2019-04-25T09:01:04.030Z,7.40
2019-04-25T09:03:40.087Z,7.40
2019-04-25T09:06:07.458Z,7.50
2019-04-25T09:08:35.968Z,7.30
2019-04-25T09:11:03.507Z,7.20
2019-04-25T09:13:30.663Z,7.30
2019-04-25T09:15:57.517Z,7.10
2019-04-25T09:18:24.333Z,7.10
2019-04-25T09:20:51.144Z,7.20
2019-04-25T09:23:18.173Z,7.10
2019-04-25T09:25:46.096Z,7.10
2019-04-25T09:28:14.282Z,7.00
2019-04-25T09:30:41.275Z,6.90
2019-04-25T09:33:08.578Z,7.00
2019-04-25T09:35:36.209Z,7.00
2019-04-25T09:38:03.849Z,7.10
2019-04-25T09:40:30.679Z,7.00
2019-04-25T09:42:57.506Z,7.20
2019-04-25T09:45:43.478Z,7.20
2019-04-25T09:48:13.209Z,7.30
2019-04-25T09:50:54.106Z,7.40
2019-04-25T09:53:23.855Z,7.30
2019-04-25T09:55:51.648Z,7.30
2019-04-25T09:58:23.729Z,7.50
2019-04-25T10:01:01.532Z,7.90
2019-04-25T10:03:28.682Z,8.20
2019-04-25T10:05:55.568Z,8.30
2019-04-25T10:08:24.171Z,8.50
2019-04-25T10:10:52.029Z,8.80
2019-04-25T10:13:19.734Z,9.10
2019-04-25T10:16:03.960Z,8.90
2019-04-25T10:18:33.485Z,8.90
2019-04-25T10:21:01.713Z,8.40
2019-04-25T10:23:28.876Z,8.30
2019-04-25T10:25:55.983Z,8.00
2019-04-25T10:28:24.258Z,8.10
2019-04-25T10:30:51.113Z,7.70
2019-04-25T10:33:24.180Z,7.70
2019-04-25T10:35:58.346Z,7.10
2019-04-25T10:38:20.375Z,7.10
2019-04-25T10:40:47.636Z,6.60
2019-04-25T10:43:14.656Z,6.20
2019-04-25T10:45:44.763Z,5.80
2019-04-25T10:48:13.685Z,5.50
2019-04-25T10:50:41.729Z,5.30
2019-04-25T10:53:08.857Z,5.00
2019-04-25T10:55:35.905Z,5.00
2019-04-25T10:58:03.911Z,4.70
2019-04-25T11:00:37.034Z,4.70
2019-04-25T11:03:18.312Z,4.70
2019-04-25T11:05:45.436Z,4.60
2019-04-25T11:08:13.750Z,4.50
2019-04-25T11:10:42.185Z,4.40
2019-04-25T11:13:09.728Z,4.50
2019-04-25T11:15:38.539Z,4.50
2019-04-25T11:18:05.336Z,4.50
2019-04-25T11:20:33.830Z,4.50
2019-04-25T11:23:00.748Z,4.70
2019-04-25T11:25:28.178Z,4.50
2019-04-25T11:27:55.277Z,4.50
2019-04-25T11:30:24.296Z,4.60
2019-04-25T11:32:51.156Z,4.50
2019-04-25T11:35:19.575Z,4.50
2019-04-25T11:37:46.562Z,4.30
2019-04-25T11:40:16.804Z,4.50
2019-04-25T11:42:45.929Z,4.60
2019-04-25T11:45:14.349Z,4.60
2019-04-25T11:47:41.251Z,4.60
2019-04-25T11:50:09.343Z,4.70
2019-04-25T11:52:36.410Z,4.80
2019-04-25T11:55:04.909Z,4.70
2019-04-25T11:57:31.780Z,4.80
2019-04-25T11:59:58.704Z,4.90
2019-04-25T12:02:25.826Z,5.00
2019-04-25T12:04:54.921Z,4.90
2019-04-25T12:07:21.635Z,5.00
2019-04-25T12:09:48.569Z,5.20
2019-04-25T12:12:15.688Z,5.30
2019-04-25T12:14:44.208Z,5.60
2019-04-25T12:17:11.183Z,5.80
2019-04-25T12:19:38.295Z,6.10
2019-04-25T12:22:05.329Z,6.30
2019-04-25T12:24:33.463Z,6.60
2019-04-25T12:27:01.004Z,6.90
2019-04-25T12:29:27.987Z,7.10
2019-04-25T12:31:55.012Z,7.20
2019-04-25T12:34:22.096Z,7.30
2019-04-25T12:36:49.000Z,7.50
2019-04-25T12:39:15.997Z,7.60
2019-04-25T12:41:44.199Z,7.40
2019-04-25T12:44:17.428Z,7.60
2019-04-25T12:46:46.071Z,7.80
2019-04-25T12:49:15.175Z,7.80
2019-04-25T12:51:42.308Z,7.90
2019-04-25T12:54:09.144Z,7.70
2019-04-25T12:56:35.937Z,7.80
2019-04-25T12:59:03.065Z,8.20
2019-04-25T13:01:29.974Z,8.40
2019-04-25T13:03:57.600Z,8.50
2019-04-25T13:06:24.269Z,9.00
2019-04-25T13:08:51.348Z,9.30
2019-04-25T13:11:18.566Z,9.40
2019-04-25T13:13:45.345Z,9.60
2019-04-25T13:16:13.191Z,9.90
2019-04-25T13:18:40.149Z,9.60
2019-04-25T13:21:07.745Z,9.30
2019-04-25T13:23:35.167Z,9.10
2019-04-25T13:26:01.969Z,9.00
2019-04-25T13:28:36.378Z,8.90
2019-04-25T13:31:14.107Z,8.80
2019-04-25T13:33:40.369Z,8.80
2019-04-25T13:36:07.064Z,8.70
2019-04-25T13:38:34.458Z,8.90
2019-04-25T13:41:01.640Z,9.00
2019-04-25T13:43:28.691Z,9.00
2019-04-25T13:45:55.833Z,8.70
2019-04-25T13:48:25.583Z,8.60
2019-04-25T13:50:51.770Z,8.40
2019-04-25T13:53:18.796Z,8.40
2019-04-25T13:55:45.601Z,8.30
2019-04-25T13:58:14.375Z,8.10
2019-04-25T14:00:41.423Z,8.10
2019-04-25T14:03:08.294Z,8.10
2019-04-25T14:05:35.733Z,7.90
2019-04-25T14:08:03.216Z,7.80
2019-04-25T14:10:30.111Z,7.80
2019-04-25T14:12:57.206Z,7.80
2019-04-25T14:15:25.585Z,7.90
2019-04-25T14:18:07.360Z,7.80
2019-04-25T14:20:36.268Z,8.00
2019-04-25T14:23:03.954Z,8.00
2019-04-25T14:25:30.947Z,8.10
2019-04-25T14:27:57.743Z,8.00
2019-04-25T14:30:26.353Z,8.00
2019-04-25T14:32:53.665Z,8.00
2019-04-25T14:35:21.635Z,8.00
2019-04-25T14:37:49.363Z,7.90
2019-04-25T14:40:16.145Z,7.80
2019-04-25T14:42:43.014Z,7.90
2019-04-25T14:45:10.409Z,7.80
2019-04-25T14:47:37.206Z,7.80
2019-04-25T14:50:06.227Z,7.70
2019-04-25T14:52:33.011Z,7.50
2019-04-25T14:55:04.600Z,7.40
2019-04-25T14:57:32.004Z,7.50
2019-04-25T15:00:02.011Z,7.40
2019-04-25T15:02:29.973Z,7.50
2019-04-25T15:04:57.048Z,7.50
2019-04-25T15:07:24.456Z,7.60
2019-04-25T15:09:51.357Z,7.70
2019-04-25T15:12:18.201Z,7.70
2019-04-25T15:14:45.721Z,7.60
2019-04-25T15:17:12.818Z,7.70
2019-04-25T15:19:39.692Z,7.70
2019-04-25T15:22:06.572Z,7.70
2019-04-25T15:24:33.408Z,7.90
2019-04-25T15:27:00.139Z,8.10
2019-04-25T15:29:27.110Z,8.30
2019-04-25T15:31:56.106Z,8.50
2019-04-25T15:34:25.845Z,8.90
2019-04-25T15:36:58.013Z,9.50
2019-04-25T15:39:44.722Z,10.20
2019-04-25T15:42:17.728Z,10.70
2019-04-25T15:44:55.556Z,11.30
2019-04-25T15:47:24.166Z,11.60
2019-04-25T15:49:51.274Z,11.60
2019-04-25T15:52:18.062Z,11.70
2019-04-25T15:54:45.170Z,11.60
2019-04-25T15:57:11.947Z,11.00
2019-04-25T15:59:39.084Z,10.50
2019-04-25T16:02:08.560Z,10.40
2019-04-25T16:04:35.662Z,10.30
2019-04-25T16:07:03.409Z,10.40
2019-04-25T16:09:30.631Z,10.80
2019-04-25T16:11:57.431Z,10.90
2019-04-25T16:14:26.387Z,10.80
2019-04-25T16:16:53.326Z,10.30
2019-04-25T16:19:20.110Z,10.10
2019-04-25T16:21:46.791Z,10.20
2019-04-25T16:24:13.606Z,10.30
2019-04-25T16:26:40.738Z,10.20
2019-04-25T16:29:07.567Z,10.00
2019-04-25T16:31:34.672Z,10.00
2019-04-25T16:34:01.531Z,9.90
2019-04-25T16:36:29.681Z,10.00
2019-04-25T16:38:57.210Z,10.10
2019-04-25T16:41:25.031Z,10.50
2019-04-25T16:43:54.099Z,10.90
2019-04-25T16:46:22.687Z,10.60
2019-04-25T16:48:49.582Z,10.10
2019-04-25T16:51:17.291Z,9.80
2019-04-25T16:53:44.126Z,9.70
2019-04-25T16:56:11.974Z,9.50
2019-04-25T16:58:38.908Z,9.30
2019-04-25T17:01:10.549Z,9.30
2019-04-25T17:03:37.801Z,9.40
2019-04-25T17:06:05.398Z,9.40
2019-04-25T17:08:32.490Z,9.40
2019-04-25T17:10:59.387Z,9.30
2019-04-25T17:13:28.178Z,9.30
2019-04-25T17:16:02.993Z,9.60
2019-04-25T17:18:34.474Z,9.60
2019-04-25T17:21:11.734Z,9.40
2019-04-25T17:23:39.678Z,9.40
2019-04-25T17:26:08.397Z,9.40
2019-04-25T17:28:37.123Z,9.30
2019-04-25T17:31:05.722Z,9.20
2019-04-25T17:33:46.609Z,9.20
2019-04-25T17:36:14.904Z,9.00
2019-04-25T17:38:43.517Z,8.90
2019-04-25T17:41:10.566Z,8.80
2019-04-25T17:43:38.454Z,9.10
2019-04-25T17:46:06.773Z,9.20
2019-04-25T17:48:34.150Z,9.40
2019-04-25T17:51:01.137Z,9.70
2019-04-25T17:53:27.979Z,9.50
2019-04-25T17:55:55.296Z,9.70
2019-04-25T17:58:22.207Z,9.50
2019-04-25T18:00:49.205Z,9.50
2019-04-25T18:03:16.425Z,9.50
2019-04-25T18:05:44.021Z,9.10
2019-04-25T18:08:11.422Z,9.10
2019-04-25T18:10:38.436Z,8.90
2019-04-25T18:13:06.223Z,8.70
2019-04-25T18:15:35.326Z,8.60
2019-04-25T18:18:05.791Z,8.70
2019-04-25T18:20:35.281Z,8.70
2019-04-25T18:23:10.028Z,8.50
2019-04-25T18:25:48.919Z,8.50
2019-04-25T18:28:15.659Z,8.30
2019-04-25T18:30:43.685Z,7.90
2019-04-25T18:33:21.886Z,7.70
2019-04-25T18:35:50.482Z,7.20
2019-04-25T18:38:24.742Z,7.00
2019-04-25T18:41:10.409Z,6.90
2019-04-25T18:43:39.843Z,6.40
2019-04-25T18:46:08.732Z,6.30
2019-04-25T18:48:36.903Z,6.40
2019-04-25T18:51:03.903Z,6.60
2019-04-25T18:53:45.242Z,6.60
2019-04-25T18:56:30.366Z,6.50
2019-04-25T18:59:16.816Z,6.20
2019-04-25T19:01:43.762Z,6.20
2019-04-25T19:04:13.620Z,6.20
2019-04-25T19:06:51.885Z,6.20
2019-04-25T19:09:11.046Z,6.20
2019-04-25T19:11:39.572Z,6.60
2019-04-25T19:14:06.443Z,6.30
2019-04-25T19:16:33.650Z,6.30
2019-04-25T19:19:00.452Z,6.10
2019-04-25T19:21:27.244Z,6.40
2019-04-25T19:23:54.104Z,6.40
2019-04-25T19:26:21.008Z,6.30
2019-04-25T19:28:47.790Z,5.80
2019-04-25T19:31:14.869Z,5.90
2019-04-25T19:33:41.865Z,6.10
2019-04-25T19:36:08.703Z,6.10
2019-04-25T19:38:35.541Z,6.00
2019-04-25T19:41:06.960Z,6.00
2019-04-25T19:43:38.973Z,6.00
2019-04-25T19:46:06.999Z,5.90
2019-04-25T19:48:33.795Z,5.80
2019-04-25T19:51:00.940Z,5.70
2019-04-25T19:53:27.762Z,5.70
2019-04-25T19:55:54.625Z,5.60
2019-04-25T19:58:21.776Z,5.60
2019-04-25T20:00:50.873Z,5.60
2019-04-25T20:03:22.468Z,5.60
2019-04-25T20:05:56.038Z,5.60
2019-04-25T20:08:33.242Z,5.00
2019-04-25T20:11:02.048Z,5.50
2019-04-25T20:13:28.873Z,5.70
2019-04-25T20:15:55.812Z,5.70
2019-04-25T20:18:22.866Z,5.70
2019-04-25T20:20:49.994Z,5.60
2019-04-25T20:23:17.096Z,5.70
2019-04-25T20:25:44.886Z,5.70
2019-04-25T20:28:12.394Z,5.60
2019-04-25T20:30:39.184Z,5.60
2019-04-25T20:33:06.378Z,5.70
2019-04-25T20:35:33.159Z,5.70
2019-04-25T20:38:00.007Z,5.70
2019-04-25T20:40:26.984Z,5.70
2019-04-25T20:42:54.134Z,5.70
2019-04-25T20:45:21.453Z,5.80
2019-04-25T20:47:48.326Z,5.90
2019-04-25T20:50:15.174Z,6.00
2019-04-25T20:52:41.987Z,6.10
2019-04-25T20:55:09.164Z,5.90
2019-04-25T20:57:36.087Z,6.00
2019-04-25T21:00:06.900Z,5.90
2019-04-25T21:02:33.405Z,6.00
2019-04-25T21:05:01.041Z,6.00
2019-04-25T21:07:28.170Z,6.10
2019-04-25T21:09:55.342Z,6.00
2019-04-25T21:12:22.207Z,6.00
2019-04-25T21:14:58.311Z,6.00
2019-04-25T21:17:39.146Z,5.90
2019-04-25T21:20:08.014Z,5.90
2019-04-25T21:22:35.012Z,6.10
2019-04-25T21:25:05.449Z,6.00
2019-04-25T21:27:31.563Z,6.00
2019-04-25T21:29:58.355Z,5.90
2019-04-25T21:32:25.164Z,6.00
2019-04-25T21:34:53.069Z,6.00
2019-04-25T21:37:20.043Z,6.10
2019-04-25T21:39:49.057Z,6.10
2019-04-25T21:42:16.553Z,6.20
2019-04-25T21:44:43.635Z,6.20
2019-04-25T21:47:10.740Z,6.20
2019-04-25T21:49:37.957Z,6.10
2019-04-25T21:52:04.631Z,5.00
2019-04-25T21:54:31.951Z,6.20
2019-04-25T21:56:59.542Z,6.20
2019-04-25T21:59:26.879Z,6.20
2019-04-25T22:01:55.404Z,6.30
2019-04-25T22:04:22.792Z,6.20
2019-04-25T22:06:49.806Z,6.10
2019-04-25T22:09:18.824Z,6.20
2019-04-25T22:11:46.978Z,6.30
2019-04-25T22:14:15.076Z,6.20
2019-04-25T22:16:42.503Z,6.30
2019-04-25T22:19:11.001Z,6.20
2019-04-25T22:21:38.993Z,6.10
2019-04-25T22:24:11.131Z,6.10
2019-04-25T22:26:35.768Z,6.10
2019-04-25T22:29:03.814Z,6.10
2019-04-25T22:31:38.533Z,6.10
2019-04-25T22:34:14.485Z,6.30
2019-04-25T22:36:41.819Z,6.10
2019-04-25T22:39:09.003Z,6.10
2019-04-25T22:41:37.610Z,6.10
2019-04-25T22:44:06.067Z,6.20
2019-04-25T22:46:33.193Z,6.10
2019-04-25T22:49:01.345Z,6.00
2019-04-25T22:51:28.375Z,6.10
2019-04-25T22:53:55.662Z,6.10
2019-04-25T22:56:22.471Z,6.10
2019-04-25T22:58:49.303Z,6.10
2019-04-25T23:01:18.296Z,6.10
2019-04-25T23:03:46.894Z,6.10
2019-04-25T23:06:14.333Z,5.70
2019-04-25T23:08:41.206Z,6.10
2019-04-25T23:11:08.447Z,6.20
2019-04-25T23:13:35.458Z,6.30
2019-04-25T23:16:04.122Z,6.10
2019-04-25T23:18:31.973Z,6.20
2019-04-25T23:20:58.807Z,6.20
2019-04-25T23:23:26.436Z,6.10
2019-04-25T23:25:55.049Z,6.30
2019-04-25T23:28:24.292Z,6.30
2019-04-25T23:30:52.897Z,6.30
2019-04-25T23:33:19.676Z,6.30
2019-04-25T23:35:48.932Z,6.40
2019-04-25T23:38:16.119Z,6.40
2019-04-25T23:40:43.269Z,6.40
2019-04-25T23:43:11.680Z,6.40
2019-04-25T23:45:38.732Z,6.30
2019-04-25T23:48:06.088Z,6.30
2019-04-25T23:50:34.193Z,6.40
2019-04-25T23:53:00.989Z,6.50
2019-04-25T23:55:28.176Z,6.50
2019-04-25T23:57:55.179Z,6.40
